createdAt,value
2023-05-18T00:01:46.620Z,19.73
2023-05-18T00:04:14.563Z,19.71
2023-05-18T00:06:42.570Z,19.74
2023-05-18T00:09:10.545Z,19.69
2023-05-18T00:11:41.096Z,19.70
2023-05-18T00:14:09.010Z,19.68
2023-05-18T00:16:36.914Z,19.67
2023-05-18T00:19:05.289Z,19.67
2023-05-18T00:21:33.733Z,19.64
2023-05-18T00:24:01.714Z,19.62
2023-05-18T00:26:29.582Z,19.60
2023-05-18T00:28:57.547Z,19.62
2023-05-18T00:31:25.617Z,19.60
2023-05-18T00:33:53.694Z,19.55
2023-05-18T00:36:21.725Z,19.54
2023-05-18T00:38:49.703Z,19.57
2023-05-18T00:41:17.713Z,19.54
2023-05-18T00:43:45.630Z,19.54
2023-05-18T00:46:14.797Z,19.55
2023-05-18T00:48:42.766Z,19.57
2023-05-18T00:51:10.935Z,19.55
2023-05-18T00:53:38.983Z,19.54
2023-05-18T00:56:06.962Z,19.51
2023-05-18T00:58:35.009Z,19.48
2023-05-18T01:01:06.342Z,19.46
2023-05-18T01:03:34.542Z,19.42
2023-05-18T01:06:05.874Z,19.44
2023-05-18T01:08:34.208Z,19.43
2023-05-18T01:11:02.234Z,19.43
2023-05-18T01:13:30.145Z,19.46
2023-05-18T01:15:58.181Z,19.46
2023-05-18T01:18:26.143Z,19.45
2023-05-18T01:20:54.181Z,19.40
2023-05-18T01:23:22.065Z,19.36
2023-05-18T01:25:49.998Z,19.39
2023-05-18T01:28:17.864Z,19.39
2023-05-18T01:30:45.938Z,19.36
2023-05-18T01:33:13.909Z,19.38
2023-05-18T01:35:48.307Z,19.32
2023-05-18T01:38:16.840Z,19.32
2023-05-18T01:40:44.972Z,19.33
2023-05-18T01:43:12.894Z,19.36
2023-05-18T01:45:40.713Z,19.33
2023-05-18T01:48:08.565Z,19.30
2023-05-18T01:50:37.917Z,19.31
2023-05-18T01:53:05.956Z,19.32
2023-05-18T01:55:33.775Z,19.32
2023-05-18T01:58:01.683Z,19.32
2023-05-18T02:00:29.733Z,19.31
2023-05-18T02:02:57.660Z,19.29
2023-05-18T02:05:25.930Z,19.29
2023-05-18T02:07:53.861Z,19.28
2023-05-18T02:10:21.721Z,19.27
2023-05-18T02:12:52.876Z,19.24
2023-05-18T02:15:20.976Z,19.23
2023-05-18T02:17:48.865Z,19.25
2023-05-18T02:20:18.430Z,19.25
2023-05-18T02:22:46.880Z,19.20
2023-05-18T02:25:14.788Z,19.18
2023-05-18T02:27:43.003Z,19.22
2023-05-18T02:30:11.949Z,19.18
2023-05-18T02:32:43.106Z,19.22
2023-05-18T02:35:11.317Z,19.25
2023-05-18T02:37:40.362Z,19.22
2023-05-18T02:40:08.590Z,19.21
2023-05-18T02:42:36.578Z,19.20
2023-05-18T02:45:04.634Z,19.17
2023-05-18T02:47:32.593Z,19.19
2023-05-18T02:50:00.658Z,19.16
2023-05-18T02:52:29.303Z,19.16
2023-05-18T02:54:57.301Z,19.18
2023-05-18T02:57:25.230Z,19.17
2023-05-18T02:59:53.112Z,19.19
2023-05-18T03:02:23.172Z,19.19
2023-05-18T03:04:54.257Z,19.18
2023-05-18T03:07:22.104Z,19.14
2023-05-18T03:09:50.097Z,19.16
2023-05-18T03:12:17.998Z,19.12
2023-05-18T03:14:46.084Z,19.12
2023-05-18T03:17:13.994Z,19.13
2023-05-18T03:19:42.094Z,19.11
2023-05-18T03:22:10.129Z,19.11
2023-05-18T03:24:40.445Z,19.14
2023-05-18T03:27:08.411Z,19.16
2023-05-18T03:29:36.414Z,19.12
2023-05-18T03:32:04.386Z,19.12
2023-05-18T03:34:32.617Z,19.08
2023-05-18T03:37:00.523Z,19.12
2023-05-18T03:39:28.462Z,19.09
2023-05-18T03:41:56.331Z,19.10
2023-05-18T03:44:24.208Z,19.08
2023-05-18T03:46:52.068Z,19.10
2023-05-18T03:49:19.985Z,19.13
2023-05-18T03:51:48.048Z,19.08
2023-05-18T03:54:16.016Z,19.12
2023-05-18T03:56:44.130Z,19.10
2023-05-18T03:59:12.049Z,19.11
2023-05-18T04:01:42.503Z,19.11
2023-05-18T04:04:10.553Z,19.09
2023-05-18T04:06:40.188Z,19.10
2023-05-18T04:09:08.256Z,19.02
2023-05-18T04:11:36.259Z,19.05
2023-05-18T04:14:04.301Z,19.09
2023-05-18T04:16:32.160Z,19.10
2023-05-18T04:19:00.514Z,19.13
2023-05-18T04:21:29.648Z,19.13
2023-05-18T04:23:59.877Z,19.11
2023-05-18T04:26:27.772Z,19.12
2023-05-18T04:29:00.312Z,19.09
2023-05-18T04:31:29.569Z,19.09
2023-05-18T04:33:59.954Z,19.07
2023-05-18T04:36:30.856Z,19.10
2023-05-18T04:38:59.955Z,19.11
2023-05-18T04:41:27.833Z,19.06
2023-05-18T04:43:55.715Z,19.11
2023-05-18T04:46:23.970Z,19.12
2023-05-18T04:48:53.187Z,19.13
2023-05-18T04:51:21.706Z,19.13
2023-05-18T04:53:50.721Z,19.13
2023-05-18T04:56:18.712Z,19.09
2023-05-18T04:58:48.225Z,19.06
2023-05-18T05:01:17.237Z,19.10
2023-05-18T05:03:45.261Z,19.15
2023-05-18T05:06:13.336Z,19.16
2023-05-18T05:08:41.282Z,19.18
2023-05-18T05:11:09.315Z,19.24
2023-05-18T05:13:37.402Z,19.28
2023-05-18T05:16:05.413Z,19.29
2023-05-18T05:18:33.267Z,19.29
2023-05-18T05:21:01.182Z,19.35
2023-05-18T05:23:29.451Z,19.39
2023-05-18T05:25:57.299Z,19.41
2023-05-18T05:28:25.345Z,19.37
2023-05-18T05:30:53.268Z,19.41
2023-05-18T05:33:21.330Z,19.43
2023-05-18T05:35:49.151Z,19.54
2023-05-18T05:38:17.113Z,19.62
2023-05-18T05:40:44.949Z,19.63
2023-05-18T05:43:12.839Z,19.62
2023-05-18T05:45:40.708Z,19.64
2023-05-18T05:48:10.049Z,19.66
2023-05-18T05:50:39.284Z,19.73
2023-05-18T05:53:07.156Z,19.73
2023-05-18T05:55:37.878Z,19.87
2023-05-18T05:58:06.251Z,19.95
2023-05-18T06:00:34.179Z,20.00
2023-05-18T06:03:02.204Z,20.06
2023-05-18T06:05:30.299Z,20.14
2023-05-18T06:07:58.523Z,20.18
2023-05-18T06:10:26.535Z,20.22
2023-05-18T06:12:54.338Z,20.26
2023-05-18T06:15:22.174Z,20.29
2023-05-18T06:17:50.039Z,20.31
2023-05-18T06:20:18.052Z,20.32
2023-05-18T06:22:46.045Z,20.36
2023-05-18T06:25:13.885Z,20.42
2023-05-18T06:27:42.499Z,20.44
2023-05-18T06:30:11.191Z,20.47
2023-05-18T06:32:39.604Z,20.51
2023-05-18T06:35:07.618Z,20.54
2023-05-18T06:37:35.489Z,20.63
2023-05-18T06:40:04.688Z,20.69
2023-05-18T06:42:32.910Z,20.75
2023-05-18T06:45:06.648Z,20.75
2023-05-18T06:47:34.582Z,20.76
2023-05-18T06:50:02.593Z,20.79
2023-05-18T06:52:31.501Z,20.81
2023-05-18T06:55:01.480Z,20.83
2023-05-18T06:57:29.357Z,20.85
2023-05-18T06:59:57.448Z,20.86
2023-05-18T07:02:25.512Z,20.86
2023-05-18T07:04:53.767Z,20.89
2023-05-18T07:07:21.622Z,20.93
2023-05-18T07:09:52.268Z,20.95
2023-05-18T07:12:20.098Z,20.96
2023-05-18T07:14:48.058Z,20.97
2023-05-18T07:17:15.927Z,21.00
2023-05-18T07:19:43.860Z,21.02
2023-05-18T07:22:11.716Z,21.05
2023-05-18T07:24:39.557Z,21.06
2023-05-18T07:27:07.467Z,21.07
2023-05-18T07:29:35.498Z,21.07
2023-05-18T07:32:03.434Z,21.09
2023-05-18T07:34:31.639Z,21.12
2023-05-18T07:36:59.467Z,21.14
2023-05-18T07:39:29.510Z,21.17
2023-05-18T07:41:57.406Z,21.22
2023-05-18T07:44:25.706Z,21.26
2023-05-18T07:46:53.547Z,21.25
2023-05-18T07:49:23.593Z,21.31
2023-05-18T07:51:51.402Z,21.28
2023-05-18T07:54:19.302Z,21.33
2023-05-18T07:56:47.241Z,21.35
2023-05-18T07:59:15.527Z,21.36
2023-05-18T08:01:45.844Z,21.40
2023-05-18T08:04:13.826Z,21.40
2023-05-18T08:06:41.917Z,21.39
2023-05-18T08:09:16.985Z,21.36
2023-05-18T08:11:45.154Z,21.39
2023-05-18T08:14:13.048Z,21.42
2023-05-18T08:16:41.129Z,21.40
2023-05-18T08:19:09.560Z,21.41
2023-05-18T08:21:37.508Z,21.38
2023-05-18T08:24:05.325Z,21.38
2023-05-18T08:26:33.309Z,21.41
2023-05-18T08:29:01.151Z,21.45
2023-05-18T08:31:29.070Z,21.47
2023-05-18T08:33:57.183Z,21.47
2023-05-18T08:36:25.102Z,21.53
2023-05-18T08:38:54.004Z,21.57
2023-05-18T08:41:22.703Z,21.58
2023-05-18T08:43:50.826Z,21.55
2023-05-18T08:46:18.717Z,21.54
2023-05-18T08:48:46.959Z,21.53
2023-05-18T08:51:17.519Z,21.54
2023-05-18T08:53:45.704Z,21.55
2023-05-18T08:56:13.561Z,21.57
2023-05-18T08:58:42.214Z,21.57
2023-05-18T09:01:10.050Z,21.63
2023-05-18T09:03:38.082Z,21.66
2023-05-18T09:06:05.962Z,21.68
2023-05-18T09:08:34.266Z,21.66
2023-05-18T09:11:02.117Z,21.68
2023-05-18T09:13:30.081Z,21.69
2023-05-18T09:15:58.047Z,21.63
2023-05-18T09:18:28.215Z,21.64
2023-05-18T09:20:56.474Z,21.65
2023-05-18T09:23:24.358Z,21.65
2023-05-18T09:25:52.402Z,21.66
2023-05-18T09:28:23.283Z,21.66
2023-05-18T09:30:53.372Z,21.62
2023-05-18T09:33:22.300Z,21.57
2023-05-18T09:35:53.712Z,21.57
2023-05-18T09:38:22.128Z,21.56
2023-05-18T09:40:50.128Z,21.55
2023-05-18T09:43:18.133Z,21.57
2023-05-18T09:45:46.350Z,21.58
2023-05-18T09:48:14.518Z,21.57
2023-05-18T09:50:44.936Z,21.59
2023-05-18T09:53:12.794Z,21.65
2023-05-18T09:55:40.706Z,21.63
2023-05-18T09:58:09.183Z,21.63
2023-05-18T10:00:37.228Z,21.63
2023-05-18T10:03:05.321Z,21.64
2023-05-18T10:05:36.056Z,21.65
2023-05-18T10:08:04.530Z,21.65
2023-05-18T10:10:32.666Z,21.63
2023-05-18T10:13:02.985Z,21.63
2023-05-18T10:15:31.169Z,21.63
2023-05-18T10:17:59.976Z,21.65
2023-05-18T10:20:28.069Z,21.65
2023-05-18T10:22:56.009Z,21.67
2023-05-18T10:25:23.908Z,21.69
2023-05-18T10:27:51.782Z,21.67
2023-05-18T10:30:19.631Z,21.66
2023-05-18T10:32:47.515Z,21.69
2023-05-18T10:35:15.531Z,21.67
2023-05-18T10:37:43.396Z,21.65
2023-05-18T10:40:11.473Z,21.63
2023-05-18T10:42:39.484Z,21.52
2023-05-18T10:45:07.574Z,21.47
2023-05-18T10:47:36.161Z,21.42
2023-05-18T10:50:04.539Z,21.45
2023-05-18T10:52:34.919Z,21.53
2023-05-18T10:55:04.602Z,21.53
2023-05-18T10:57:34.611Z,21.54
2023-05-18T11:00:02.764Z,21.45
2023-05-18T11:02:30.998Z,21.37
2023-05-18T11:05:00.971Z,21.34
2023-05-18T11:07:31.605Z,21.41
2023-05-18T11:09:59.575Z,21.46
2023-05-18T11:12:29.946Z,21.43
2023-05-18T11:14:58.491Z,21.40
2023-05-18T11:17:26.868Z,21.41
2023-05-18T11:19:54.688Z,21.40
2023-05-18T11:22:22.630Z,21.35
2023-05-18T11:24:50.524Z,21.30
2023-05-18T11:27:19.693Z,21.30
2023-05-18T11:29:47.816Z,21.30
2023-05-18T11:32:20.698Z,21.33
2023-05-18T11:34:54.219Z,21.42
2023-05-18T11:37:22.151Z,21.42
2023-05-18T11:39:59.481Z,21.47
2023-05-18T11:42:29.070Z,21.47
2023-05-18T11:44:59.100Z,21.44
2023-05-18T11:47:27.119Z,21.42
2023-05-18T11:49:55.024Z,21.38
2023-05-18T11:52:22.971Z,21.41
2023-05-18T11:54:52.397Z,21.47
2023-05-18T11:57:20.307Z,21.54
2023-05-18T11:59:48.134Z,21.57
2023-05-18T12:02:16.143Z,21.59
2023-05-18T12:04:44.050Z,21.58
2023-05-18T12:07:12.044Z,21.62
2023-05-18T12:09:40.098Z,21.63
2023-05-18T12:12:07.957Z,21.66
2023-05-18T12:14:36.192Z,21.66
2023-05-18T12:17:07.299Z,21.65
2023-05-18T12:19:35.283Z,21.65
2023-05-18T12:22:04.527Z,21.65
2023-05-18T12:24:32.368Z,21.65
2023-05-18T12:27:06.791Z,21.69
2023-05-18T12:29:35.363Z,21.69
2023-05-18T12:32:03.200Z,21.69
2023-05-18T12:34:31.112Z,21.72
2023-05-18T12:36:59.088Z,21.75
2023-05-18T12:39:28.786Z,21.74
2023-05-18T12:41:57.937Z,21.73
2023-05-18T12:44:25.798Z,21.73
2023-05-18T12:46:54.236Z,21.76
2023-05-18T12:49:22.066Z,21.75
2023-05-18T12:51:49.880Z,21.76
2023-05-18T12:54:17.739Z,21.74
2023-05-18T12:56:45.693Z,21.74
2023-05-18T12:59:13.494Z,21.77
2023-05-18T13:01:41.946Z,21.77
2023-05-18T13:04:09.883Z,21.77
2023-05-18T13:06:37.842Z,21.79
2023-05-18T13:09:05.757Z,21.75
2023-05-18T13:11:34.734Z,21.70
2023-05-18T13:14:03.448Z,21.59
2023-05-18T13:16:31.385Z,21.55
2023-05-18T13:18:59.310Z,21.52
2023-05-18T13:21:27.141Z,21.50
2023-05-18T13:23:55.048Z,21.48
2023-05-18T13:26:23.059Z,21.44
2023-05-18T13:28:50.915Z,21.49
2023-05-18T13:31:18.770Z,21.52
2023-05-18T13:33:46.671Z,21.50
2023-05-18T13:36:14.554Z,21.53
2023-05-18T13:38:42.635Z,21.52
2023-05-18T13:41:11.708Z,21.42
2023-05-18T13:43:39.887Z,21.46
2023-05-18T13:46:07.752Z,21.45
2023-05-18T13:48:35.746Z,21.45
2023-05-18T13:51:03.764Z,21.44
2023-05-18T13:53:31.706Z,21.46
2023-05-18T13:55:59.561Z,21.54
2023-05-18T13:58:27.446Z,21.49
2023-05-18T14:00:55.580Z,21.44
2023-05-18T14:03:24.586Z,21.43
2023-05-18T14:05:52.653Z,21.45
2023-05-18T14:08:20.612Z,21.41
2023-05-18T14:10:48.530Z,21.40
2023-05-18T14:13:16.509Z,21.40
2023-05-18T14:15:44.347Z,21.46
2023-05-18T14:18:12.810Z,21.29
2023-05-18T14:20:40.778Z,21.29
2023-05-18T14:23:09.837Z,21.52
2023-05-18T14:25:37.797Z,21.60
2023-05-18T14:28:05.693Z,21.65
2023-05-18T14:30:33.616Z,21.69
2023-05-18T14:33:02.212Z,21.68
2023-05-18T14:35:30.130Z,21.70
2023-05-18T14:37:58.174Z,21.74
2023-05-18T14:40:26.162Z,21.74
2023-05-18T14:42:54.205Z,21.70
2023-05-18T14:45:22.395Z,21.72
2023-05-18T14:47:50.334Z,21.74
2023-05-18T14:50:18.511Z,21.72
2023-05-18T14:52:46.413Z,21.72
2023-05-18T14:55:14.332Z,21.75
2023-05-18T14:57:42.732Z,21.78
2023-05-18T15:00:10.731Z,21.80
2023-05-18T15:02:38.694Z,21.78
2023-05-18T15:05:06.748Z,21.70
2023-05-18T15:07:34.655Z,21.62
2023-05-18T15:10:02.830Z,21.57
2023-05-18T15:12:30.739Z,21.54
2023-05-18T15:14:59.161Z,21.53
2023-05-18T15:17:27.152Z,21.49
2023-05-18T15:19:55.111Z,21.45
2023-05-18T15:22:23.282Z,21.46
2023-05-18T15:24:51.218Z,21.45
2023-05-18T15:27:19.252Z,21.44
2023-05-18T15:29:48.570Z,21.44
2023-05-18T15:32:16.541Z,21.41
2023-05-18T15:34:44.573Z,21.38
2023-05-18T15:37:12.557Z,21.37
2023-05-18T15:39:40.583Z,21.36
2023-05-18T15:42:08.503Z,21.31
2023-05-18T15:44:36.369Z,21.31
2023-05-18T15:47:04.425Z,21.31
2023-05-18T15:49:32.248Z,21.27
2023-05-18T15:52:00.293Z,21.21
2023-05-18T15:54:28.137Z,21.20
2023-05-18T15:56:56.024Z,21.18
2023-05-18T15:59:23.932Z,21.18
2023-05-18T16:01:52.113Z,21.17
2023-05-18T16:04:20.310Z,21.17
2023-05-18T16:06:48.257Z,21.14
2023-05-18T16:09:16.124Z,21.22
2023-05-18T16:11:44.249Z,21.39
2023-05-18T16:14:12.326Z,21.79
2023-05-18T16:16:40.383Z,21.92
2023-05-18T16:19:08.978Z,21.93
2023-05-18T16:21:36.966Z,21.93
2023-05-18T16:24:04.873Z,21.85
2023-05-18T16:26:32.959Z,21.79
2023-05-18T16:29:00.878Z,21.77
2023-05-18T16:31:29.041Z,21.74
2023-05-18T16:33:56.916Z,21.70
2023-05-18T16:36:26.313Z,21.58
2023-05-18T16:38:54.238Z,21.56
2023-05-18T16:41:22.219Z,21.57
2023-05-18T16:43:50.122Z,21.56
2023-05-18T16:46:18.086Z,21.60
2023-05-18T16:48:46.124Z,21.59
2023-05-18T16:51:14.061Z,21.58
2023-05-18T16:53:42.745Z,21.32
2023-05-18T16:56:10.742Z,21.20
2023-05-18T16:58:39.025Z,21.20
2023-05-18T17:01:19.264Z,21.24
2023-05-18T17:03:54.666Z,21.31
2023-05-18T17:06:22.628Z,21.38
2023-05-18T17:08:57.450Z,21.37
2023-05-18T17:11:27.025Z,21.38
2023-05-18T17:13:55.056Z,21.38
2023-05-18T17:16:23.567Z,21.39
2023-05-18T17:18:51.596Z,21.37
2023-05-18T17:21:19.452Z,21.35
2023-05-18T17:23:47.499Z,21.37
2023-05-18T17:26:15.415Z,21.33
2023-05-18T17:28:43.541Z,21.30
2023-05-18T17:31:11.538Z,21.25
2023-05-18T17:33:39.591Z,21.20
2023-05-18T17:36:07.463Z,21.20
2023-05-18T17:38:35.483Z,21.17
2023-05-18T17:41:04.287Z,21.16
2023-05-18T17:43:32.111Z,21.18
2023-05-18T17:45:59.978Z,21.13
2023-05-18T17:48:28.019Z,21.12
2023-05-18T17:50:56.000Z,21.08
2023-05-18T17:53:23.984Z,21.07
2023-05-18T17:55:52.474Z,21.04
2023-05-18T17:58:20.378Z,21.03
2023-05-18T18:00:48.530Z,21.06
2023-05-18T18:03:17.380Z,21.06
2023-05-18T18:05:45.548Z,21.08
2023-05-18T18:08:15.646Z,21.52
2023-05-18T18:10:43.567Z,21.63
2023-05-18T18:13:11.490Z,21.59
2023-05-18T18:15:39.277Z,21.53
2023-05-18T18:18:08.443Z,21.50
2023-05-18T18:20:36.874Z,21.43
2023-05-18T18:23:04.846Z,21.40
2023-05-18T18:25:32.707Z,21.40
2023-05-18T18:28:00.524Z,21.38
2023-05-18T18:30:28.355Z,21.36
2023-05-18T18:32:56.294Z,21.34
2023-05-18T18:35:24.387Z,21.33
2023-05-18T18:37:52.308Z,21.23
2023-05-18T18:40:20.311Z,21.26
2023-05-18T18:42:48.498Z,21.24
2023-05-18T18:45:16.527Z,21.20
2023-05-18T18:47:44.419Z,21.18
2023-05-18T18:50:12.506Z,21.18
2023-05-18T18:52:40.454Z,21.14
2023-05-18T18:55:08.298Z,21.13
2023-05-18T18:57:36.239Z,21.11
2023-05-18T19:00:07.407Z,21.09
2023-05-18T19:02:38.474Z,21.08
2023-05-18T19:05:21.612Z,21.09
2023-05-18T19:07:50.033Z,21.07
2023-05-18T19:10:18.181Z,21.08
2023-05-18T19:12:46.149Z,21.07
2023-05-18T19:15:14.456Z,21.06
2023-05-18T19:17:55.293Z,21.05
2023-05-18T19:20:25.207Z,21.03
2023-05-18T19:22:56.505Z,21.02
2023-05-18T19:25:29.028Z,21.00
2023-05-18T19:27:59.901Z,21.02
2023-05-18T19:30:28.128Z,21.02
2023-05-18T19:32:56.274Z,21.00
2023-05-18T19:35:24.822Z,20.99
2023-05-18T19:37:53.394Z,20.98
2023-05-18T19:40:22.978Z,20.97
2023-05-18T19:42:51.044Z,20.96
2023-05-18T19:45:18.835Z,20.96
2023-05-18T19:47:46.850Z,20.93
2023-05-18T19:50:14.798Z,20.92
2023-05-18T19:52:43.027Z,20.94
2023-05-18T19:55:10.909Z,20.91
2023-05-18T19:57:38.731Z,20.91
2023-05-18T20:00:07.483Z,20.88
2023-05-18T20:02:36.521Z,20.89
2023-05-18T20:05:06.166Z,20.88
2023-05-18T20:07:36.192Z,20.88
2023-05-18T20:10:04.130Z,20.86
2023-05-18T20:12:32.255Z,20.84
2023-05-18T20:15:00.217Z,20.81
2023-05-18T20:17:28.183Z,20.78
2023-05-18T20:19:56.065Z,20.78
2023-05-18T20:22:24.053Z,20.82
2023-05-18T20:24:51.988Z,20.81
2023-05-18T20:27:19.810Z,20.78
2023-05-18T20:29:47.648Z,20.78
2023-05-18T20:32:15.465Z,20.80
2023-05-18T20:34:44.526Z,20.83
2023-05-18T20:37:14.032Z,20.81
2023-05-18T20:39:42.728Z,20.84
2023-05-18T20:42:12.956Z,20.85
2023-05-18T20:44:40.949Z,20.76
2023-05-18T20:47:11.317Z,20.77
2023-05-18T20:49:39.257Z,20.81
2023-05-18T20:52:07.093Z,20.77
2023-05-18T20:54:34.977Z,20.76
2023-05-18T20:57:03.116Z,20.76
2023-05-18T20:59:30.982Z,20.79
2023-05-18T21:01:58.950Z,20.69
2023-05-18T21:04:26.983Z,20.74
2023-05-18T21:06:54.773Z,20.74
2023-05-18T21:09:22.647Z,20.73
2023-05-18T21:11:50.670Z,20.74
2023-05-18T21:14:18.660Z,20.72
2023-05-18T21:16:46.911Z,20.71
2023-05-18T21:19:14.774Z,20.70
2023-05-18T21:21:42.960Z,20.69
2023-05-18T21:24:10.737Z,20.68
2023-05-18T21:26:38.696Z,20.71
2023-05-18T21:29:06.543Z,20.71
2023-05-18T21:31:34.530Z,20.71
2023-05-18T21:34:02.483Z,20.68
2023-05-18T21:36:34.150Z,20.68
2023-05-18T21:39:02.506Z,20.69
2023-05-18T21:41:30.495Z,20.64
2023-05-18T21:43:58.437Z,20.64
2023-05-18T21:46:26.520Z,20.62
2023-05-18T21:48:54.485Z,20.63
2023-05-18T21:51:22.457Z,20.65
2023-05-18T21:53:50.317Z,20.65
2023-05-18T21:56:18.233Z,20.64
2023-05-18T21:58:46.038Z,20.64
2023-05-18T22:01:13.955Z,20.62
2023-05-18T22:03:41.808Z,20.60
2023-05-18T22:06:09.583Z,20.60
2023-05-18T22:08:37.391Z,20.60
2023-05-18T22:11:05.219Z,20.61
2023-05-18T22:13:33.006Z,20.60
2023-05-18T22:16:00.822Z,20.60
2023-05-18T22:18:28.632Z,20.58
2023-05-18T22:20:56.428Z,20.54
2023-05-18T22:23:24.249Z,20.54
2023-05-18T22:25:52.054Z,20.54
2023-05-18T22:28:21.790Z,20.57
2023-05-18T22:30:49.724Z,20.60
2023-05-18T22:33:18.212Z,20.57
2023-05-18T22:35:46.059Z,20.56
2023-05-18T22:38:13.907Z,20.53
2023-05-18T22:40:44.292Z,20.54
2023-05-18T22:43:12.208Z,20.49
2023-05-18T22:45:40.008Z,20.51
2023-05-18T22:48:07.829Z,20.50
2023-05-18T22:50:35.724Z,20.50
2023-05-18T22:53:04.867Z,20.53
2023-05-18T22:55:32.828Z,20.54
2023-05-18T22:58:00.806Z,20.52
2023-05-18T23:00:28.675Z,20.51
2023-05-18T23:02:56.679Z,20.50
2023-05-18T23:05:24.698Z,20.50
2023-05-18T23:07:52.737Z,20.52
2023-05-18T23:10:20.543Z,20.48
2023-05-18T23:12:48.468Z,20.48
2023-05-18T23:15:17.499Z,20.48
2023-05-18T23:17:46.299Z,20.49
2023-05-18T23:20:14.187Z,20.45
2023-05-18T23:22:42.172Z,20.45
2023-05-18T23:25:10.024Z,20.47
2023-05-18T23:27:37.903Z,20.44
2023-05-18T23:30:05.786Z,20.44
2023-05-18T23:32:33.722Z,20.39
2023-05-18T23:35:01.592Z,20.40
2023-05-18T23:37:29.410Z,20.39
2023-05-18T23:39:57.201Z,20.41
2023-05-18T23:42:25.054Z,20.41
2023-05-18T23:44:52.987Z,20.38
2023-05-18T23:47:20.915Z,20.37
2023-05-18T23:49:48.772Z,20.38
2023-05-18T23:52:16.718Z,20.38
2023-05-18T23:54:47.156Z,20.39
2023-05-18T23:57:15.001Z,20.39
2023-05-18T23:59:43.169Z,20.37
